Time,TemperatureF,DewpointF,PressureIn,WindDirection,WindDirectionDegrees,WindSpeedMPH,WindSpeedGustMPH,Humidity,HourlyPrecipIn,Conditions,Clouds,dailyrainin,SoftwareType,DateUTC
2013-04-09 00:02:00,60.0,53.0,29.84,SSE,159,0.0,2.0,79,0.00,,,0.73,,2013-04-09 05:02:00,
2013-04-09 00:12:00,61.0,54.0,29.85,SSE,159,0.0,0.0,78,0.00,,,0.73,,2013-04-09 05:12:00,
2013-04-09 00:22:00,61.0,54.0,29.85,SSE,159,0.0,0.0,78,0.00,,,0.73,,2013-04-09 05:22:00,
2013-04-09 00:32:00,60.0,53.0,29.84,SSE,159,0.0,2.0,78,0.00,,,0.73,,2013-04-09 05:32:00,
2013-04-09 00:42:00,61.0,54.0,29.83,SSE,159,0.0,3.0,79,0.00,,,0.73,,2013-04-09 05:42:00,
2013-04-09 00:52:00,61.0,54.0,29.83,SSE,159,0.0,3.0,79,0.00,,,0.73,,2013-04-09 05:52:00,
2013-04-09 01:02:00,61.0,55.0,29.83,SSE,159,0.0,1.0,80,0.00,,,0.73,,2013-04-09 06:02:00,
2013-04-09 01:12:00,61.0,55.0,29.83,SSE,159,1.0,2.0,80,0.00,,,0.73,,2013-04-09 06:12:00,
2013-04-09 01:22:00,61.0,55.0,29.83,SSE,159,1.0,2.0,80,0.00,,,0.73,,2013-04-09 06:22:00,
2013-04-09 01:32:00,61.0,54.0,29.82,East,100,0.0,4.0,79,0.00,,,0.73,,2013-04-09 06:32:00,
2013-04-09 01:42:00,61.0,54.0,29.82,East,100,0.0,4.0,79,0.00,,,0.73,,2013-04-09 06:42:00,
2013-04-09 01:52:00,61.0,54.0,29.82,ESE,123,1.0,5.0,78,0.00,,,0.73,,2013-04-09 06:52:00,
2013-04-09 02:02:00,61.0,54.0,29.82,SE,138,0.0,3.0,77,0.00,,,0.73,,2013-04-09 07:02:00,
2013-04-09 02:12:00,61.0,54.0,29.82,SE,138,0.0,3.0,77,0.00,,,0.73,,2013-04-09 07:12:00,
2013-04-09 02:22:00,61.0,54.0,29.82,ESE,103,0.0,3.0,78,0.00,,,0.73,,2013-04-09 07:22:00,
2013-04-09 02:32:00,60.0,53.0,29.82,East,95,3.0,8.0,78,0.00,,,0.73,,2013-04-09 07:32:00,
2013-04-09 02:42:00,60.0,53.0,29.82,East,95,3.0,8.0,78,0.00,,,0.73,,2013-04-09 07:42:00,
2013-04-09 02:52:00,60.0,53.0,29.81,ESE,112,2.0,9.0,78,0.00,,,0.73,,2013-04-09 07:52:00,
2013-04-09 03:03:00,60.0,53.0,29.81,East,88,2.0,8.0,79,0.00,,,0.73,,2013-04-09 08:03:00,
2013-04-09 03:12:00,60.0,53.0,29.81,East,88,2.0,8.0,79,0.00,,,0.73,,2013-04-09 08:12:00,
2013-04-09 03:22:00,60.0,53.0,29.81,East,96,2.0,8.0,79,0.00,,,0.67,,2013-04-09 08:22:00,
2013-04-09 03:32:00,59.0,52.0,29.81,East,95,4.0,8.0,79,0.00,,,0.67,,2013-04-09 08:32:00,
2013-04-09 03:42:00,59.0,52.0,29.81,East,95,4.0,8.0,79,0.00,,,0.67,,2013-04-09 08:42:00,
2013-04-09 03:52:00,58.0,52.0,29.82,ESE,103,4.0,10.0,79,0.00,,,0.67,,2013-04-09 08:52:00,
2013-04-09 04:02:00,57.0,51.0,29.82,East,94,4.0,8.0,79,0.00,,,0.67,,2013-04-09 09:02:00,
2013-04-09 04:12:00,57.0,51.0,29.82,East,94,4.0,8.0,79,0.00,,,0.67,,2013-04-09 09:12:00,
2013-04-09 04:22:00,56.0,50.0,29.81,ESE,103,3.0,9.0,79,0.00,,,0.34,,2013-04-09 09:22:00,
2013-04-09 04:33:00,55.0,49.0,29.81,ESE,107,3.0,11.0,80,0.00,,,0.34,,2013-04-09 09:33:00,
2013-04-09 04:43:00,55.0,49.0,29.81,ESE,107,3.0,11.0,80,0.00,,,0.34,,2013-04-09 09:43:00,
2013-04-09 04:53:00,54.0,48.0,29.82,NE,53,2.0,9.0,81,0.02,,,0.36,,2013-04-09 09:53:00,
2013-04-09 05:03:00,54.0,49.0,29.82,East,82,0.0,9.0,83,0.02,,,0.36,,2013-04-09 10:03:00,
2013-04-09 05:12:00,54.0,49.0,29.82,East,82,0.0,9.0,83,0.02,,,0.36,,2013-04-09 10:12:00,
2013-04-09 05:23:00,53.0,48.0,29.82,ESE,108,3.0,8.0,83,0.02,,,0.21,,2013-04-09 10:23:00,
2013-04-09 05:33:00,53.0,48.0,29.82,ESE,103,2.0,6.0,83,0.02,,,0.21,,2013-04-09 10:33:00,
2013-04-09 05:42:00,53.0,48.0,29.82,ESE,103,2.0,6.0,83,0.02,,,0.21,,2013-04-09 10:42:00,
2013-04-09 05:53:00,52.0,47.0,29.83,SE,135,1.0,6.0,83,0.00,,,0.21,,2013-04-09 10:53:00,
2013-04-09 06:02:00,52.0,47.0,29.82,ESE,122,2.0,5.0,84,0.00,,,0.21,,2013-04-09 11:02:00,
2013-04-09 06:12:00,52.0,47.0,29.82,ESE,122,2.0,5.0,84,0.00,,,0.21,,2013-04-09 11:12:00,
2013-04-09 06:22:00,51.0,46.0,29.82,SE,138,2.0,5.0,83,0.01,,,0.04,,2013-04-09 11:22:00,
2013-04-09 06:32:00,51.0,46.0,29.82,ESE,111,2.0,5.0,84,0.01,,,0.04,,2013-04-09 11:32:00,
2013-04-09 06:42:00,51.0,46.0,29.82,ESE,111,2.0,5.0,84,0.01,,,0.04,,2013-04-09 11:42:00,
2013-04-09 06:52:00,51.0,46.0,29.81,SE,128,3.0,7.0,84,0.01,,,0.04,,2013-04-09 11:52:00,
2013-04-09 07:02:00,51.0,47.0,29.81,SE,132,1.0,6.0,85,0.01,,,0.04,,2013-04-09 12:02:00,
2013-04-09 07:12:00,51.0,47.0,29.81,SE,132,1.0,6.0,85,0.01,,,0.04,,2013-04-09 12:12:00,
2013-04-09 07:22:00,51.0,47.0,29.81,ESE,112,1.0,4.0,85,0.00,,,0.04,,2013-04-09 12:22:00,
2013-04-09 07:32:00,51.0,47.0,29.82,ESE,104,1.0,5.0,86,0.00,,,0.04,,2013-04-09 12:32:00,
2013-04-09 07:42:00,51.0,47.0,29.82,ESE,104,1.0,5.0,86,0.00,,,0.04,,2013-04-09 12:42:00,
2013-04-09 07:53:00,51.0,47.0,29.82,ESE,103,0.0,1.0,86,0.00,,,0.04,,2013-04-09 12:53:00,
2013-04-09 08:02:00,52.0,48.0,29.83,ESE,103,0.0,1.0,86,0.00,,,0.04,,2013-04-09 13:02:00,
2013-04-09 08:12:00,52.0,48.0,29.83,ESE,103,0.0,1.0,86,0.00,,,0.04,,2013-04-09 13:12:00,
2013-04-09 08:23:00,52.0,48.0,29.83,ESE,103,1.0,3.0,85,0.00,,,0.03,,2013-04-09 13:23:00,
2013-04-09 08:32:00,52.0,48.0,29.82,ESE,103,2.0,5.0,85,0.00,,,0.03,,2013-04-09 13:32:00,
2013-04-09 08:42:00,52.0,48.0,29.82,ESE,103,2.0,5.0,85,0.00,,,0.03,,2013-04-09 13:42:00,
2013-04-09 08:53:00,52.0,48.0,29.81,East,90,0.0,5.0,86,0.00,,,0.03,,2013-04-09 13:53:00,
2013-04-09 09:03:00,53.0,49.0,29.80,East,90,0.0,1.0,85,0.00,,,0.03,,2013-04-09 14:03:00,
2013-04-09 09:12:00,53.0,49.0,29.80,East,90,0.0,1.0,85,0.00,,,0.03,,2013-04-09 14:12:00,
2013-04-09 09:22:00,53.0,49.0,29.80,East,90,1.0,3.0,85,0.00,,,0.03,,2013-04-09 14:22:00,
2013-04-09 09:32:00,54.0,50.0,29.79,SE,138,0.0,4.0,85,0.00,,,0.03,,2013-04-09 14:32:00,
2013-04-09 09:42:00,54.0,50.0,29.79,SE,138,0.0,4.0,85,0.00,,,0.03,,2013-04-09 14:42:00,
2013-04-09 09:52:00,55.0,50.0,29.79,East,82,1.0,6.0,84,0.00,,,0.03,,2013-04-09 14:52:00,
2013-04-09 10:02:00,55.0,50.0,29.78,East,86,1.0,7.0,83,0.00,,,0.03,,2013-04-09 15:02:00,
2013-04-09 10:12:00,55.0,50.0,29.78,East,86,1.0,7.0,83,0.00,,,0.03,,2013-04-09 15:12:00,
2013-04-09 10:22:00,56.0,51.0,29.78,ESE,107,2.0,4.0,83,0.00,,,0.03,,2013-04-09 15:22:00,
2013-04-09 10:33:00,57.0,52.0,29.78,East,92,0.0,3.0,83,0.00,,,0.03,,2013-04-09 15:33:00,
2013-04-09 10:43:00,57.0,52.0,29.78,East,92,0.0,3.0,83,0.00,,,0.03,,2013-04-09 15:43:00,
2013-04-09 11:03:00,61.0,55.0,29.77,ESE,121,2.0,7.0,80,0.00,,,0.03,,2013-04-09 16:03:00,
2013-04-09 11:13:00,61.0,55.0,29.77,ESE,121,2.0,7.0,80,0.00,,,0.03,,2013-04-09 16:13:00,
2013-04-09 11:23:00,64.0,57.0,29.78,ESE,119,2.0,6.0,79,0.00,,,0.03,,2013-04-09 16:23:00,
2013-04-09 11:33:00,65.0,57.0,29.78,SE,126,0.0,4.0,76,0.00,,,0.03,,2013-04-09 16:33:00,
2013-04-09 11:42:00,65.0,57.0,29.78,SE,126,0.0,4.0,76,0.00,,,0.03,,2013-04-09 16:42:00,
2013-04-09 11:53:00,66.0,57.0,29.78,ESE,103,2.0,4.0,73,0.00,,,0.03,,2013-04-09 16:53:00,
2013-04-09 12:02:00,67.0,59.0,29.77,SSW,202,2.0,6.0,75,0.00,,,0.03,,2013-04-09 17:02:00,
2013-04-09 12:12:00,67.0,59.0,29.77,SSW,202,2.0,6.0,75,0.00,,,0.03,,2013-04-09 17:12:00,
2013-04-09 12:23:00,69.0,59.0,29.77,West,262,2.0,9.0,71,0.00,,,0.03,,2013-04-09 17:23:00,
2013-04-09 12:32:00,71.0,60.0,29.76,ESE,108,1.0,7.0,68,0.00,,,0.03,,2013-04-09 17:32:00,
2013-04-09 12:42:00,71.0,60.0,29.76,ESE,108,1.0,7.0,68,0.00,,,0.03,,2013-04-09 17:42:00,
2013-04-09 12:53:00,71.0,58.0,29.76,SSW,201,4.0,11.0,64,0.00,,,0.03,,2013-04-09 17:53:00,
2013-04-09 13:02:00,72.0,59.0,29.75,WSW,252,2.0,8.0,64,0.00,,,0.03,,2013-04-09 18:02:00,
2013-04-09 13:12:00,72.0,59.0,29.75,WSW,252,2.0,8.0,64,0.00,,,0.03,,2013-04-09 18:12:00,
2013-04-09 13:22:00,73.0,60.0,29.75,WSW,246,1.0,8.0,64,0.00,,,0.03,,2013-04-09 18:22:00,
2013-04-09 13:32:00,74.0,60.0,29.75,SSW,207,2.0,7.0,62,0.00,,,0.03,,2013-04-09 18:32:00,
2013-04-09 13:43:00,74.0,60.0,29.75,SSW,207,2.0,7.0,62,0.00,,,0.03,,2013-04-09 18:43:00,
2013-04-09 13:53:00,74.0,60.0,29.75,WSW,256,3.0,15.0,61,0.00,,,0.03,,2013-04-09 18:53:00,
2013-04-09 14:02:00,74.0,60.0,29.75,WSW,256,3.0,15.0,61,0.00,,,0.03,,2013-04-09 19:02:00,
2013-04-09 14:12:00,74.0,60.0,29.75,WSW,256,3.0,15.0,61,0.00,,,0.03,,2013-04-09 19:12:00,
2013-04-09 14:22:00,74.0,60.0,29.75,WSW,256,3.0,15.0,61,0.00,,,0.03,,2013-04-09 19:22:00,
2013-04-09 14:32:00,77.0,59.0,29.75,South,189,7.0,16.0,53,0.00,,,0.03,,2013-04-09 19:32:00,
2013-04-09 14:42:00,77.0,59.0,29.75,South,189,7.0,16.0,53,0.00,,,0.03,,2013-04-09 19:42:00,
2013-04-09 14:53:00,78.0,59.0,29.75,SW,224,4.0,11.0,53,0.00,,,0.03,,2013-04-09 19:53:00,
2013-04-09 15:02:00,77.0,60.0,29.75,West,277,1.0,8.0,55,0.00,,,0.03,,2013-04-09 20:02:00,
2013-04-09 15:12:00,77.0,60.0,29.75,West,277,1.0,8.0,55,0.00,,,0.03,,2013-04-09 20:12:00,
2013-04-09 15:22:00,77.0,59.0,29.74,ESE,117,6.0,9.0,54,0.00,,,0.03,,2013-04-09 20:22:00,
2013-04-09 15:33:00,78.0,58.0,29.75,WSW,239,4.0,13.0,51,0.00,,,0.03,,2013-04-09 20:33:00,
2013-04-09 15:42:00,78.0,58.0,29.75,WSW,239,4.0,13.0,51,0.00,,,0.03,,2013-04-09 20:42:00,
2013-04-09 15:53:00,77.0,59.0,29.75,WNW,290,2.0,8.0,54,0.00,,,0.03,,2013-04-09 20:53:00,
2013-04-09 16:02:00,77.0,59.0,29.75,SW,223,5.0,11.0,54,0.00,,,0.03,,2013-04-09 21:02:00,
2013-04-09 16:13:00,77.0,59.0,29.75,SW,223,5.0,11.0,54,0.00,,,0.03,,2013-04-09 21:13:00,
2013-04-09 16:22:00,77.0,59.0,29.75,SW,223,5.0,11.0,54,0.00,,,0.03,,2013-04-09 21:22:00,
2013-04-09 16:33:00,78.0,59.0,29.75,SW,227,2.0,6.0,52,0.00,,,0.03,,2013-04-09 21:33:00,
2013-04-09 16:42:00,78.0,59.0,29.75,SW,227,2.0,6.0,52,0.00,,,0.03,,2013-04-09 21:42:00,
2013-04-09 16:53:00,77.0,58.0,29.75,WSW,255,2.0,6.0,52,0.00,,,0.03,,2013-04-09 21:53:00,
2013-04-09 17:03:00,72.0,55.0,29.77,East,80,3.0,6.0,56,0.00,,,0.03,,2013-04-09 22:03:00,
2013-04-09 17:12:00,72.0,55.0,29.77,East,80,3.0,6.0,56,0.00,,,0.03,,2013-04-09 22:12:00,
2013-04-09 17:23:00,67.0,55.0,29.77,North,11,0.0,4.0,65,0.00,,,0.03,,2013-04-09 22:23:00,
2013-04-09 17:33:00,67.0,56.0,29.77,East,88,0.0,5.0,67,0.00,,,0.03,,2013-04-09 22:33:00,
2013-04-09 17:42:00,67.0,56.0,29.77,East,88,0.0,5.0,67,0.00,,,0.03,,2013-04-09 22:42:00,
2013-04-09 17:53:00,67.0,56.0,29.78,East,90,0.0,3.0,68,0.00,,,0.03,,2013-04-09 22:53:00,
2013-04-09 18:03:00,66.0,55.0,29.78,NNE,33,1.0,3.0,68,0.00,,,0.03,,2013-04-09 23:03:00,
2013-04-09 18:12:00,64.0,54.0,29.80,NNE,32,1.0,4.0,69,0.00,,,0.03,,2013-04-09 23:12:00,
2013-04-09 18:22:00,64.0,54.0,29.80,NNE,32,1.0,4.0,69,0.00,,,0.03,,2013-04-09 23:22:00,
2013-04-09 18:32:00,63.0,53.0,29.80,East,89,2.0,7.0,69,0.00,,,0.03,,2013-04-09 23:32:00,
2013-04-09 18:42:00,63.0,53.0,29.80,East,89,2.0,7.0,69,0.00,,,0.03,,2013-04-09 23:42:00,
2013-04-09 18:53:00,61.0,51.0,29.80,East,79,1.0,4.0,70,0.00,,,0.03,,2013-04-09 23:53:00,
2013-04-09 19:03:00,61.0,51.0,29.80,East,79,1.0,4.0,70,0.00,,,0.03,,2013-04-10 00:03:00,
2013-04-09 19:12:00,61.0,51.0,29.80,East,79,1.0,4.0,70,0.00,,,0.03,,2013-04-10 00:12:00,
2013-04-09 19:22:00,58.0,49.0,29.82,East,94,4.0,7.0,73,0.00,,,0.03,,2013-04-10 00:22:00,
2013-04-09 19:32:00,55.0,47.0,29.82,East,83,3.0,7.0,75,0.00,,,0.03,,2013-04-10 00:32:00,
2013-04-09 19:42:00,55.0,47.0,29.82,East,83,3.0,7.0,75,0.00,,,0.03,,2013-04-10 00:42:00,
2013-04-09 19:52:00,53.0,45.0,29.83,NE,55,5.0,9.0,75,0.00,,,0.03,,2013-04-10 00:52:00,
2013-04-09 20:02:00,52.0,45.0,29.83,ENE,62,2.0,7.0,78,0.00,,,0.03,,2013-04-10 01:02:00,
2013-04-09 20:12:00,51.0,44.0,29.83,East,86,1.0,5.0,78,0.00,,,0.03,,2013-04-10 01:12:00,
2013-04-09 20:23:00,51.0,44.0,29.83,East,86,1.0,5.0,78,0.00,,,0.03,,2013-04-10 01:23:00,
2013-04-09 20:32:00,50.0,44.0,29.84,ENE,71,6.0,9.0,79,0.00,,,0.03,,2013-04-10 01:32:00,
2013-04-09 20:42:00,50.0,44.0,29.84,ENE,71,6.0,9.0,79,0.00,,,0.03,,2013-04-10 01:42:00,
2013-04-09 20:53:00,49.0,43.0,29.84,WSW,252,2.0,10.0,79,0.00,,,0.03,,2013-04-10 01:53:00,
2013-04-09 21:02:00,48.0,42.0,29.85,ESE,105,5.0,10.0,80,0.00,,,0.03,,2013-04-10 02:02:00,
2013-04-09 21:12:00,48.0,42.0,29.85,ESE,105,5.0,10.0,80,0.00,,,0.03,,2013-04-10 02:12:00,
2013-04-09 21:22:00,48.0,42.0,29.85,ENE,78,4.0,11.0,81,0.00,,,0.03,,2013-04-10 02:22:00,
2013-04-09 21:32:00,48.0,42.0,29.85,East,79,2.0,9.0,81,0.00,,,0.03,,2013-04-10 02:32:00,
2013-04-09 21:42:00,48.0,42.0,29.85,East,79,2.0,9.0,81,0.00,,,0.03,,2013-04-10 02:42:00,
2013-04-09 21:52:00,48.0,42.0,29.86,ENE,76,3.0,8.0,81,0.00,,,0.03,,2013-04-10 02:52:00,
2013-04-09 22:02:00,48.0,43.0,29.87,East,94,1.0,5.0,82,0.00,,,0.03,,2013-04-10 03:02:00,
2013-04-09 22:12:00,48.0,43.0,29.87,East,94,1.0,5.0,82,0.00,,,0.03,,2013-04-10 03:12:00,
2013-04-09 22:22:00,48.0,42.0,29.89,ENE,78,3.0,8.0,81,0.00,,,0.03,,2013-04-10 03:22:00,
2013-04-09 22:33:00,48.0,42.0,29.88,ESE,106,5.0,9.0,79,0.00,,,0.03,,2013-04-10 03:33:00,
2013-04-09 22:43:00,48.0,42.0,29.88,ESE,106,5.0,9.0,79,0.00,,,0.03,,2013-04-10 03:43:00,
2013-04-09 22:53:00,47.0,41.0,29.87,ESE,109,4.0,8.0,79,0.00,,,0.03,,2013-04-10 03:53:00,
2013-04-09 23:03:00,47.0,41.0,29.87,East,94,2.0,7.0,80,0.00,,,0.03,,2013-04-10 04:03:00,
2013-04-09 23:13:00,47.0,41.0,29.87,East,94,2.0,7.0,80,0.00,,,0.03,,2013-04-10 04:13:00,
2013-04-09 23:23:00,46.0,40.0,29.86,East,92,1.0,5.0,80,0.00,,,0.03,,2013-04-10 04:23:00,
2013-04-09 23:33:00,46.0,40.0,29.86,East,95,3.0,8.0,80,0.00,,,0.03,,2013-04-10 04:33:00,
2013-04-09 23:42:00,46.0,40.0,29.86,East,95,3.0,8.0,80,0.00,,,0.03,,2013-04-10 04:42:00,
2013-04-09 23:53:00,45.0,40.0,29.86,East,90,3.0,9.0,82,0.00,,,0.03,,2013-04-10 04:53:00,